sensor_id;sensor_type;location;lat;lon;timestamp;pressure;altitude;pressure_sealevel;temperature;humidity
33795;BME280;51430;52.242;21.118;2023-06-04T00:01:48;101039.69;;;9.67;65.42
33795;BME280;51430;52.242;21.118;2023-06-04T00:04:17;101033.25;;;9.59;66.09
33795;BME280;51430;52.242;21.118;2023-06-04T00:06:44;101032.85;;;9.54;66.12
33795;BME280;51430;52.242;21.118;2023-06-04T00:09:12;101030.98;;;9.50;66.45
33795;BME280;51430;52.242;21.118;2023-06-04T00:11:40;101029.23;;;9.51;66.60
33795;BME280;51430;52.242;21.118;2023-06-04T00:14:08;101026.31;;;9.47;66.73
33795;BME280;51430;52.242;21.118;2023-06-04T00:16:35;101025.92;;;9.42;66.75
33795;BME280;51430;52.242;21.118;2023-06-04T00:19:04;101026.84;;;9.35;67.07
33795;BME280;51430;52.242;21.118;2023-06-04T00:21:32;101026.85;;;9.30;67.28
33795;BME280;51430;52.242;21.118;2023-06-04T00:24:00;101019.82;;;9.25;67.59
33795;BME280;51430;52.242;21.118;2023-06-04T00:26:28;101018.86;;;9.24;67.78
33795;BME280;51430;52.242;21.118;2023-06-04T00:28:56;101023.15;;;9.22;67.57
33795;BME280;51430;52.242;21.118;2023-06-04T00:31:24;101022.63;;;9.13;67.83
33795;BME280;51430;52.242;21.118;2023-06-04T00:33:52;101021.76;;;9.10;67.93
33795;BME280;51430;52.242;21.118;2023-06-04T00:36:20;101018.78;;;9.08;68.03
33795;BME280;51430;52.242;21.118;2023-06-04T00:38:47;101021.17;;;9.02;68.09
33795;BME280;51430;52.242;21.118;2023-06-04T00:41:15;101018.52;;;9.00;68.09
33795;BME280;51430;52.242;21.118;2023-06-04T00:43:44;101018.27;;;8.99;68.20
33795;BME280;51430;52.242;21.118;2023-06-04T00:46:25;101019.17;;;8.95;68.66
33795;BME280;51430;52.242;21.118;2023-06-04T00:48:54;101017.34;;;8.94;68.74
33795;BME280;51430;52.242;21.118;2023-06-04T00:51:23;101013.42;;;8.93;68.77
33795;BME280;51430;52.242;21.118;2023-06-04T00:53:51;101013.73;;;8.90;68.90
33795;BME280;51430;52.242;21.118;2023-06-04T00:56:20;101016.38;;;8.90;68.98
33795;BME280;51430;52.242;21.118;2023-06-04T00:58:48;101014.39;;;8.88;68.99
33795;BME280;51430;52.242;21.118;2023-06-04T01:01:42;101015.36;;;8.83;68.97
33795;BME280;51430;52.242;21.118;2023-06-04T01:04:20;101013.59;;;8.75;69.46
33795;BME280;51430;52.242;21.118;2023-06-04T01:06:53;101010.60;;;8.76;69.69
33795;BME280;51430;52.242;21.118;2023-06-04T01:09:26;101010.62;;;8.75;69.68
33795;BME280;51430;52.242;21.118;2023-06-04T01:11:55;101011.31;;;8.72;69.67
33795;BME280;51430;52.242;21.118;2023-06-04T01:14:26;101010.27;;;8.69;69.86
33795;BME280;51430;52.242;21.118;2023-06-04T01:16:59;101011.70;;;8.68;69.99
33795;BME280;51430;52.242;21.118;2023-06-04T01:22:03;101010.15;;;8.65;70.38
33795;BME280;51430;52.242;21.118;2023-06-04T01:24:34;101009.41;;;8.63;70.29
33795;BME280;51430;52.242;21.118;2023-06-04T01:27:06;101010.80;;;8.60;70.42
33795;BME280;51430;52.242;21.118;2023-06-04T01:29:35;101008.48;;;8.55;70.05
33795;BME280;51430;52.242;21.118;2023-06-04T01:32:04;101011.75;;;8.56;70.41
33795;BME280;51430;52.242;21.118;2023-06-04T01:34:43;101010.80;;;8.54;70.26
33795;BME280;51430;52.242;21.118;2023-06-04T01:37:11;101014.01;;;8.50;70.50
33795;BME280;51430;52.242;21.118;2023-06-04T01:39:42;101009.00;;;8.49;70.33
33795;BME280;51430;52.242;21.118;2023-06-04T01:42:10;101012.23;;;8.47;70.51
33795;BME280;51430;52.242;21.118;2023-06-04T01:44:38;101009.33;;;8.43;70.81
33795;BME280;51430;52.242;21.118;2023-06-04T01:47:06;101009.19;;;8.43;70.97
33795;BME280;51430;52.242;21.118;2023-06-04T01:49:33;101008.65;;;8.40;70.89
33795;BME280;51430;52.242;21.118;2023-06-04T01:52:01;101010.55;;;8.37;71.19
33795;BME280;51430;52.242;21.118;2023-06-04T01:54:29;101005.75;;;8.36;71.37
33795;BME280;51430;52.242;21.118;2023-06-04T01:56:57;101008.11;;;8.37;71.41
33795;BME280;51430;52.242;21.118;2023-06-04T01:59:25;101007.39;;;8.37;71.42
33795;BME280;51430;52.242;21.118;2023-06-04T02:01:54;101003.60;;;8.37;71.42
33795;BME280;51430;52.242;21.118;2023-06-04T02:04:22;101005.12;;;8.35;71.62
33795;BME280;51430;52.242;21.118;2023-06-04T02:06:50;101004.94;;;8.32;71.83
33795;BME280;51430;52.242;21.118;2023-06-04T02:09:18;100997.78;;;8.30;71.77
33795;BME280;51430;52.242;21.118;2023-06-04T02:11:46;100998.00;;;8.29;71.97
33795;BME280;51430;52.242;21.118;2023-06-04T02:14:14;101000.95;;;8.26;71.95
33795;BME280;51430;52.242;21.118;2023-06-04T02:16:41;100999.96;;;8.21;72.24
33795;BME280;51430;52.242;21.118;2023-06-04T02:19:09;100998.09;;;8.24;72.20
33795;BME280;51430;52.242;21.118;2023-06-04T02:21:40;100998.47;;;8.27;72.12
33795;BME280;51430;52.242;21.118;2023-06-04T02:24:08;100998.08;;;8.27;72.27
33795;BME280;51430;52.242;21.118;2023-06-04T02:26:36;100999.70;;;8.27;72.18
33795;BME280;51430;52.242;21.118;2023-06-04T02:29:04;100998.53;;;8.26;72.02
33795;BME280;51430;52.242;21.118;2023-06-04T02:31:32;100995.89;;;8.23;72.21
33795;BME280;51430;52.242;21.118;2023-06-04T02:33:59;100996.06;;;8.26;72.11
33795;BME280;51430;52.242;21.118;2023-06-04T02:36:29;100997.45;;;8.30;72.01
33795;BME280;51430;52.242;21.118;2023-06-04T02:38:57;100999.04;;;8.29;71.98
33795;BME280;51430;52.242;21.118;2023-06-04T02:41:25;100997.89;;;8.28;71.89
33795;BME280;51430;52.242;21.118;2023-06-04T02:43:53;100998.98;;;8.24;71.79
33795;BME280;51430;52.242;21.118;2023-06-04T02:46:21;100999.20;;;8.26;72.00
33795;BME280;51430;52.242;21.118;2023-06-04T02:48:48;101001.48;;;8.32;71.82
33795;BME280;51430;52.242;21.118;2023-06-04T02:51:16;101000.39;;;8.36;72.07
33795;BME280;51430;52.242;21.118;2023-06-04T02:53:45;101003.15;;;8.39;71.77
33795;BME280;51430;52.242;21.118;2023-06-04T02:56:13;101002.13;;;8.42;72.05
33795;BME280;51430;52.242;21.118;2023-06-04T02:58:54;100999.40;;;8.44;72.00
33795;BME280;51430;52.242;21.118;2023-06-04T03:01:26;100997.61;;;8.42;71.98
33795;BME280;51430;52.242;21.118;2023-06-04T03:03:54;101001.48;;;8.44;72.10
33795;BME280;51430;52.242;21.118;2023-06-04T03:06:23;101004.80;;;8.40;72.24
33795;BME280;51430;52.242;21.118;2023-06-04T03:08:52;101003.85;;;8.42;72.67
33795;BME280;51430;52.242;21.118;2023-06-04T03:11:21;101004.32;;;8.46;72.70
33795;BME280;51430;52.242;21.118;2023-06-04T03:13:49;101007.33;;;8.48;72.57
33795;BME280;51430;52.242;21.118;2023-06-04T03:16:16;101004.73;;;8.51;72.48
33795;BME280;51430;52.242;21.118;2023-06-04T03:18:44;101005.63;;;8.50;72.49
33795;BME280;51430;52.242;21.118;2023-06-04T03:21:12;101003.39;;;8.50;72.32
33795;BME280;51430;52.242;21.118;2023-06-04T03:23:40;101007.58;;;8.53;72.57
33795;BME280;51430;52.242;21.118;2023-06-04T03:26:08;101005.38;;;8.54;72.48
33795;BME280;51430;52.242;21.118;2023-06-04T03:28:36;101005.83;;;8.56;72.38
33795;BME280;51430;52.242;21.118;2023-06-04T03:31:04;101004.63;;;8.58;72.68
33795;BME280;51430;52.242;21.118;2023-06-04T03:33:32;101005.75;;;8.63;72.54
33795;BME280;51430;52.242;21.118;2023-06-04T03:36:00;101003.02;;;8.71;72.37
33795;BME280;51430;52.242;21.118;2023-06-04T03:38:29;101006.13;;;8.75;72.34
33795;BME280;51430;52.242;21.118;2023-06-04T03:40:57;101004.04;;;8.81;72.47
33795;BME280;51430;52.242;21.118;2023-06-04T03:43:25;101008.95;;;8.89;72.41
33795;BME280;51430;52.242;21.118;2023-06-04T03:45:53;101007.38;;;8.95;72.28
33795;BME280;51430;52.242;21.118;2023-06-04T03:48:21;101012.64;;;9.03;72.33
33795;BME280;51430;52.242;21.118;2023-06-04T03:50:48;101010.64;;;9.07;72.11
33795;BME280;51430;52.242;21.118;2023-06-04T03:53:17;101015.80;;;9.14;72.06
33795;BME280;51430;52.242;21.118;2023-06-04T03:55:44;101013.63;;;9.21;71.59
33795;BME280;51430;52.242;21.118;2023-06-04T03:58:12;101018.30;;;9.30;71.61
33795;BME280;51430;52.242;21.118;2023-06-04T04:00:42;101020.14;;;9.37;71.61
33795;BME280;51430;52.242;21.118;2023-06-04T04:03:10;101017.33;;;9.46;71.66
33795;BME280;51430;52.242;21.118;2023-06-04T04:05:37;101015.55;;;9.55;71.69
33795;BME280;51430;52.242;21.118;2023-06-04T04:08:05;101016.81;;;9.63;71.54
33795;BME280;51430;52.242;21.118;2023-06-04T04:10:33;101016.13;;;9.71;71.42
33795;BME280;51430;52.242;21.118;2023-06-04T04:13:01;101010.48;;;9.81;71.21
33795;BME280;51430;52.242;21.118;2023-06-04T04:15:29;101015.42;;;9.88;70.86
33795;BME280;51430;52.242;21.118;2023-06-04T04:17:57;101014.44;;;9.98;70.51
33795;BME280;51430;52.242;21.118;2023-06-04T04:20:25;101012.52;;;10.12;70.32
33795;BME280;51430;52.242;21.118;2023-06-04T04:22:53;101015.76;;;10.24;69.40
33795;BME280;51430;52.242;21.118;2023-06-04T04:25:21;101016.91;;;10.33;69.31
33795;BME280;51430;52.242;21.118;2023-06-04T04:27:48;101017.95;;;10.41;69.45
33795;BME280;51430;52.242;21.118;2023-06-04T04:30:16;101017.03;;;10.47;69.13
33795;BME280;51430;52.242;21.118;2023-06-04T04:32:45;101017.19;;;10.55;69.23
33795;BME280;51430;52.242;21.118;2023-06-04T04:35:17;101015.14;;;10.66;69.67
33795;BME280;51430;52.242;21.118;2023-06-04T04:37:45;101016.58;;;10.73;69.69
33795;BME280;51430;52.242;21.118;2023-06-04T04:40:13;101016.48;;;10.82;69.34
33795;BME280;51430;52.242;21.118;2023-06-04T04:42:42;101018.09;;;10.92;67.59
33795;BME280;51430;52.242;21.118;2023-06-04T04:45:10;101010.70;;;11.08;66.66
33795;BME280;51430;52.242;21.118;2023-06-04T04:47:38;101012.89;;;11.27;65.27
33795;BME280;51430;52.242;21.118;2023-06-04T04:50:06;101015.14;;;11.50;66.32
33795;BME280;51430;52.242;21.118;2023-06-04T04:52:34;101013.55;;;11.63;62.23
33795;BME280;51430;52.242;21.118;2023-06-04T04:55:02;101015.83;;;11.80;60.96
33795;BME280;51430;52.242;21.118;2023-06-04T04:57:30;101015.76;;;11.91;59.60
33795;BME280;51430;52.242;21.118;2023-06-04T04:59:58;101017.52;;;12.03;59.15
33795;BME280;51430;52.242;21.118;2023-06-04T05:02:26;101013.94;;;12.17;58.63
33795;BME280;51430;52.242;21.118;2023-06-04T05:04:54;101013.20;;;12.29;57.71
33795;BME280;51430;52.242;21.118;2023-06-04T05:07:22;101012.36;;;12.43;57.69
33795;BME280;51430;52.242;21.118;2023-06-04T05:09:51;101011.30;;;12.52;57.30
33795;BME280;51430;52.242;21.118;2023-06-04T05:12:18;101013.20;;;12.74;57.33
33795;BME280;51430;52.242;21.118;2023-06-04T05:14:46;101012.23;;;12.84;56.83
33795;BME280;51430;52.242;21.118;2023-06-04T05:17:14;101018.48;;;12.90;56.36
33795;BME280;51430;52.242;21.118;2023-06-04T05:19:44;101013.60;;;13.17;56.74
33795;BME280;51430;52.242;21.118;2023-06-04T05:22:11;101017.03;;;13.54;56.12
33795;BME280;51430;52.242;21.118;2023-06-04T05:24:40;101014.02;;;13.79;55.53
33795;BME280;51430;52.242;21.118;2023-06-04T05:27:08;101016.77;;;13.87;54.50
33795;BME280;51430;52.242;21.118;2023-06-04T05:29:37;101013.64;;;14.08;54.31
33795;BME280;51430;52.242;21.118;2023-06-04T05:32:05;101016.75;;;14.39;53.77
33795;BME280;51430;52.242;21.118;2023-06-04T05:34:32;101019.88;;;14.71;53.59
33795;BME280;51430;52.242;21.118;2023-06-04T05:37:04;101017.17;;;14.93;52.75
33795;BME280;51430;52.242;21.118;2023-06-04T05:39:38;101013.66;;;15.07;52.85
33795;BME280;51430;52.242;21.118;2023-06-04T05:42:06;101012.84;;;15.17;51.87
33795;BME280;51430;52.242;21.118;2023-06-04T05:44:34;101012.27;;;15.48;51.12
33795;BME280;51430;52.242;21.118;2023-06-04T05:47:02;101009.90;;;15.88;50.01
33795;BME280;51430;52.242;21.118;2023-06-04T05:49:30;101008.85;;;16.25;48.63
33795;BME280;51430;52.242;21.118;2023-06-04T05:51:58;101013.50;;;16.46;44.53
33795;BME280;51430;52.242;21.118;2023-06-04T05:54:26;101018.13;;;16.86;43.86
33795;BME280;51430;52.242;21.118;2023-06-04T05:56:54;101015.05;;;17.36;43.94
33795;BME280;51430;52.242;21.118;2023-06-04T05:59:22;101019.44;;;17.88;42.11
33795;BME280;51430;52.242;21.118;2023-06-04T06:01:50;101026.55;;;18.38;41.89
33795;BME280;51430;52.242;21.118;2023-06-04T06:04:18;101030.88;;;18.60;40.83
33795;BME280;51430;52.242;21.118;2023-06-04T06:06:46;101029.37;;;18.79;38.97
33795;BME280;51430;52.242;21.118;2023-06-04T06:09:16;101031.21;;;18.95;38.68
33795;BME280;51430;52.242;21.118;2023-06-04T06:11:44;101032.18;;;18.81;38.91
33795;BME280;51430;52.242;21.118;2023-06-04T06:14:11;101029.73;;;19.20;38.54
33795;BME280;51430;52.242;21.118;2023-06-04T06:16:40;101031.37;;;19.67;38.06
33795;BME280;51430;52.242;21.118;2023-06-04T06:19:08;101029.63;;;20.15;37.51
33795;BME280;51430;52.242;21.118;2023-06-04T06:21:36;101032.02;;;20.57;36.60
33795;BME280;51430;52.242;21.118;2023-06-04T06:24:04;101034.34;;;20.93;35.93
33795;BME280;51430;52.242;21.118;2023-06-04T06:26:32;101033.41;;;21.10;34.18
33795;BME280;51430;52.242;21.118;2023-06-04T06:29:00;101034.23;;;21.25;35.16
33795;BME280;51430;52.242;21.118;2023-06-04T06:31:28;101037.01;;;21.44;34.59
33795;BME280;51430;52.242;21.118;2023-06-04T06:33:56;101041.79;;;21.59;34.89
33795;BME280;51430;52.242;21.118;2023-06-04T06:36:24;101041.36;;;22.02;34.47
33795;BME280;51430;52.242;21.118;2023-06-04T06:38:51;101047.02;;;22.40;32.84
33795;BME280;51430;52.242;21.118;2023-06-04T06:41:20;101050.83;;;22.48;32.69
33795;BME280;51430;52.242;21.118;2023-06-04T06:43:48;101046.80;;;21.93;33.17
33795;BME280;51430;52.242;21.118;2023-06-04T06:46:16;101050.94;;;22.16;33.07
33795;BME280;51430;52.242;21.118;2023-06-04T06:48:44;101055.27;;;22.58;33.20
33795;BME280;51430;52.242;21.118;2023-06-04T06:51:13;101056.73;;;23.13;32.76
33795;BME280;51430;52.242;21.118;2023-06-04T06:53:41;101057.49;;;23.36;31.38
33795;BME280;51430;52.242;21.118;2023-06-04T06:56:09;101062.54;;;23.31;30.78
33795;BME280;51430;52.242;21.118;2023-06-04T06:58:37;101058.61;;;23.04;31.18
33795;BME280;51430;52.242;21.118;2023-06-04T07:01:05;101059.36;;;23.19;31.17
33795;BME280;51430;52.242;21.118;2023-06-04T07:03:34;101058.84;;;23.66;31.27
33795;BME280;51430;52.242;21.118;2023-06-04T07:06:03;101062.46;;;24.20;31.35
33795;BME280;51430;52.242;21.118;2023-06-04T07:08:35;101065.45;;;24.79;30.28
33795;BME280;51430;52.242;21.118;2023-06-04T07:18:10;101065.14;;;25.08;27.30
33795;BME280;51430;52.242;21.118;2023-06-04T07:20:44;101062.57;;;24.45;28.60
33795;BME280;51430;52.242;21.118;2023-06-04T07:23:39;101060.64;;;24.65;28.03
33795;BME280;51430;52.242;21.118;2023-06-04T07:26:19;101058.69;;;24.66;28.63
33795;BME280;51430;52.242;21.118;2023-06-04T07:29:23;101060.83;;;23.87;28.29
33795;BME280;51430;52.242;21.118;2023-06-04T07:32:29;101056.66;;;24.32;29.01
33795;BME280;51430;52.242;21.118;2023-06-04T07:35:14;101057.95;;;25.42;28.22
33795;BME280;51430;52.242;21.118;2023-06-04T07:37:43;101055.31;;;26.02;27.22
33795;BME280;51430;52.242;21.118;2023-06-04T07:40:17;101057.59;;;26.12;27.24
33795;BME280;51430;52.242;21.118;2023-06-04T07:42:45;101057.77;;;26.58;27.99
33795;BME280;51430;52.242;21.118;2023-06-04T07:45:14;101064.13;;;27.30;27.09
33795;BME280;51430;52.242;21.118;2023-06-04T07:47:43;101059.97;;;27.77;25.77
33795;BME280;51430;52.242;21.118;2023-06-04T07:50:11;101064.89;;;27.39;25.19
33795;BME280;51430;52.242;21.118;2023-06-04T07:52:39;101067.52;;;27.22;25.42
33795;BME280;51430;52.242;21.118;2023-06-04T07:55:07;101066.10;;;27.38;25.61
33795;BME280;51430;52.242;21.118;2023-06-04T07:57:36;101065.34;;;27.82;25.51
33795;BME280;51430;52.242;21.118;2023-06-04T08:00:04;101059.09;;;28.23;24.36
33795;BME280;51430;52.242;21.118;2023-06-04T08:02:33;101063.73;;;28.06;24.49
33795;BME280;51430;52.242;21.118;2023-06-04T08:05:12;101065.15;;;28.04;24.91
33795;BME280;51430;52.242;21.118;2023-06-04T08:07:46;101068.20;;;28.55;24.40
33795;BME280;51430;52.242;21.118;2023-06-04T08:10:15;101069.39;;;28.39;22.90
33795;BME280;51430;52.242;21.118;2023-06-04T08:12:43;101066.67;;;28.02;23.17
33795;BME280;51430;52.242;21.118;2023-06-04T08:15:22;101066.42;;;27.89;23.85
33795;BME280;51430;52.242;21.118;2023-06-04T08:17:51;101063.55;;;28.13;24.31
33795;BME280;51430;52.242;21.118;2023-06-04T08:20:28;101064.98;;;28.55;23.85
33795;BME280;51430;52.242;21.118;2023-06-04T08:22:56;101062.38;;;28.69;23.84
33795;BME280;51430;52.242;21.118;2023-06-04T08:25:23;101059.57;;;29.19;25.22
33795;BME280;51430;52.242;21.118;2023-06-04T08:27:51;101061.15;;;29.68;24.67
33795;BME280;51430;52.242;21.118;2023-06-04T08:30:19;101064.54;;;30.06;23.13
33795;BME280;51430;52.242;21.118;2023-06-04T08:32:47;101066.73;;;29.73;22.65
33795;BME280;51430;52.242;21.118;2023-06-04T08:35:16;101059.30;;;29.43;23.00
33795;BME280;51430;52.242;21.118;2023-06-04T08:37:44;101059.93;;;29.20;22.12
33795;BME280;51430;52.242;21.118;2023-06-04T08:40:12;101055.55;;;27.83;22.92
33795;BME280;51430;52.242;21.118;2023-06-04T08:42:43;101049.46;;;27.83;23.49
33795;BME280;51430;52.242;21.118;2023-06-04T08:45:14;101050.66;;;27.94;23.71
33795;BME280;51430;52.242;21.118;2023-06-04T08:47:48;101047.44;;;28.19;23.15
33795;BME280;51430;52.242;21.118;2023-06-04T08:50:17;101048.34;;;28.50;23.17
33795;BME280;51430;52.242;21.118;2023-06-04T08:52:46;101049.21;;;29.23;22.60
33795;BME280;51430;52.242;21.118;2023-06-04T08:55:14;101050.98;;;29.90;21.67
33795;BME280;51430;52.242;21.118;2023-06-04T08:57:43;101051.16;;;29.25;22.76
33795;BME280;51430;52.242;21.118;2023-06-04T09:00:11;101047.66;;;28.68;22.76
33795;BME280;51430;52.242;21.118;2023-06-04T09:02:40;101049.61;;;28.70;22.88
33795;BME280;51430;52.242;21.118;2023-06-04T09:05:09;101048.32;;;29.05;22.41
33795;BME280;51430;52.242;21.118;2023-06-04T09:07:39;101047.27;;;28.95;22.08
33795;BME280;51430;52.242;21.118;2023-06-04T09:10:09;101046.95;;;28.84;21.97
33795;BME280;51430;52.242;21.118;2023-06-04T09:12:42;101047.96;;;29.07;22.04
33795;BME280;51430;52.242;21.118;2023-06-04T09:15:11;101050.58;;;30.14;22.25
33795;BME280;51430;52.242;21.118;2023-06-04T09:17:45;101057.33;;;31.01;21.98
33795;BME280;51430;52.242;21.118;2023-06-04T09:20:21;101064.04;;;31.31;21.17
33795;BME280;51430;52.242;21.118;2023-06-04T09:22:50;101052.42;;;30.37;20.43
33795;BME280;51430;52.242;21.118;2023-06-04T09:25:25;101054.13;;;30.72;21.06
33795;BME280;51430;52.242;21.118;2023-06-04T09:27:57;101047.23;;;31.01;21.18
33795;BME280;51430;52.242;21.118;2023-06-04T09:30:34;101048.72;;;31.61;21.19
33795;BME280;51430;52.242;21.118;2023-06-04T09:33:07;101052.37;;;32.55;20.82
33795;BME280;51430;52.242;21.118;2023-06-04T09:35:36;101052.37;;;32.61;20.47
33795;BME280;51430;52.242;21.118;2023-06-04T09:38:04;101050.70;;;32.47;20.17
33795;BME280;51430;52.242;21.118;2023-06-04T09:40:37;101054.27;;;31.99;20.34
33795;BME280;51430;52.242;21.118;2023-06-04T09:43:05;101048.95;;;31.19;20.47
33795;BME280;51430;52.242;21.118;2023-06-04T09:45:34;101047.67;;;31.33;20.50
33795;BME280;51430;52.242;21.118;2023-06-04T09:48:04;101039.15;;;30.97;21.04
33795;BME280;51430;52.242;21.118;2023-06-04T09:50:36;101043.73;;;31.36;20.50
33795;BME280;51430;52.242;21.118;2023-06-04T09:53:20;101043.57;;;32.29;20.78
33795;BME280;51430;52.242;21.118;2023-06-04T09:55:57;101041.29;;;33.70;19.74
33795;BME280;51430;52.242;21.118;2023-06-04T09:58:27;101043.52;;;34.43;18.82
33795;BME280;51430;52.242;21.118;2023-06-04T10:00:56;101042.67;;;34.07;18.73
33795;BME280;51430;52.242;21.118;2023-06-04T10:03:25;101045.34;;;34.08;19.11
33795;BME280;51430;52.242;21.118;2023-06-04T10:07:05;101036.41;;;31.40;19.70
33795;BME280;51430;52.242;21.118;2023-06-04T10:09:38;101028.76;;;31.14;20.38
33795;BME280;51430;52.242;21.118;2023-06-04T10:12:16;101024.18;;;32.56;19.67
33795;BME280;51430;52.242;21.118;2023-06-04T10:14:59;101026.70;;;33.67;18.91
33795;BME280;51430;52.242;21.118;2023-06-04T10:17:29;101022.38;;;33.26;19.14
33795;BME280;51430;52.242;21.118;2023-06-04T10:19:59;101020.97;;;33.80;19.43
33795;BME280;51430;52.242;21.118;2023-06-04T10:26:49;101017.66;;;33.76;18.60
33795;BME280;51430;52.242;21.118;2023-06-04T10:29:30;101022.20;;;34.53;18.67
33795;BME280;51430;52.242;21.118;2023-06-04T10:32:20;101019.81;;;35.57;18.30
33795;BME280;51430;52.242;21.118;2023-06-04T10:37:51;101019.63;;;36.27;18.02
33795;BME280;51430;52.242;21.118;2023-06-04T10:40:40;101018.31;;;37.09;16.93
33795;BME280;51430;52.242;21.118;2023-06-04T10:43:15;101018.75;;;37.28;16.70
33795;BME280;51430;52.242;21.118;2023-06-04T10:45:47;101013.34;;;36.19;18.09
33795;BME280;51430;52.242;21.118;2023-06-04T10:50:52;101017.23;;;36.37;18.32
33795;BME280;51430;52.242;21.118;2023-06-04T10:54:31;101011.94;;;36.79;17.62
33795;BME280;51430;52.242;21.118;2023-06-04T10:57:10;101012.92;;;36.93;17.57
33795;BME280;51430;52.242;21.118;2023-06-04T10:59:39;101012.92;;;34.84;17.12
33795;BME280;51430;52.242;21.118;2023-06-04T11:02:08;100998.70;;;31.91;18.79
33795;BME280;51430;52.242;21.118;2023-06-04T11:04:36;100992.70;;;31.99;19.26
33795;BME280;51430;52.242;21.118;2023-06-04T11:07:08;100992.27;;;33.00;19.32
33795;BME280;51430;52.242;21.118;2023-06-04T11:09:40;100995.83;;;33.79;18.85
33795;BME280;51430;52.242;21.118;2023-06-04T11:12:15;100993.29;;;34.37;18.59
33795;BME280;51430;52.242;21.118;2023-06-04T11:14:56;100998.57;;;35.04;18.16
33795;BME280;51430;52.242;21.118;2023-06-04T11:17:24;101003.11;;;35.87;17.31
33795;BME280;51430;52.242;21.118;2023-06-04T11:19:52;101004.94;;;36.52;16.81
33795;BME280;51430;52.242;21.118;2023-06-04T11:22:23;101007.40;;;37.09;16.48
33795;BME280;51430;52.242;21.118;2023-06-04T11:24:58;101008.59;;;37.46;16.20
33795;BME280;51430;52.242;21.118;2023-06-04T11:27:27;101008.21;;;38.35;16.26
33795;BME280;51430;52.242;21.118;2023-06-04T11:30:02;101005.27;;;37.78;16.10
33795;BME280;51430;52.242;21.118;2023-06-04T11:32:30;101003.95;;;36.92;16.39
33795;BME280;51430;52.242;21.118;2023-06-04T11:35:03;101001.30;;;36.64;16.99
33795;BME280;51430;52.242;21.118;2023-06-04T11:37:34;101001.23;;;36.19;17.25
33795;BME280;51430;52.242;21.118;2023-06-04T11:42:47;100996.67;;;37.50;16.62
33795;BME280;51430;52.242;21.118;2023-06-04T11:45:17;100998.27;;;37.66;16.54
33795;BME280;51430;52.242;21.118;2023-06-04T11:47:53;100995.08;;;38.03;16.45
33795;BME280;51430;52.242;21.118;2023-06-04T11:50:26;100991.88;;;36.82;16.74
33795;BME280;51430;52.242;21.118;2023-06-04T11:52:56;100991.02;;;36.72;17.08
33795;BME280;51430;52.242;21.118;2023-06-04T11:55:25;100991.94;;;37.36;16.42
33795;BME280;51430;52.242;21.118;2023-06-04T11:57:54;100991.56;;;38.11;16.10
33795;BME280;51430;52.242;21.118;2023-06-04T12:00:22;100996.96;;;38.75;15.87
33795;BME280;51430;52.242;21.118;2023-06-04T12:02:52;100992.75;;;38.67;15.66
33795;BME280;51430;52.242;21.118;2023-06-04T12:05:31;100988.78;;;37.19;15.70
33795;BME280;51430;52.242;21.118;2023-06-04T12:08:06;100986.16;;;35.54;16.37
33795;BME280;51430;52.242;21.118;2023-06-04T12:10:41;100981.05;;;35.66;17.05
33795;BME280;51430;52.242;21.118;2023-06-04T12:13:09;100980.64;;;37.19;17.20
33795;BME280;51430;52.242;21.118;2023-06-04T12:15:38;100984.85;;;38.45;16.43
33795;BME280;51430;52.242;21.118;2023-06-04T12:18:05;100987.98;;;38.80;15.55
33795;BME280;51430;52.242;21.118;2023-06-04T12:20:38;100983.66;;;38.54;15.32
33795;BME280;51430;52.242;21.118;2023-06-04T12:23:07;100989.89;;;38.85;15.43
33795;BME280;51430;52.242;21.118;2023-06-04T12:25:35;100989.89;;;39.04;15.67
33795;BME280;51430;52.242;21.118;2023-06-04T12:28:05;100993.38;;;39.82;15.46
33795;BME280;51430;52.242;21.118;2023-06-04T12:32:38;100995.55;;;40.61;14.66
33795;BME280;51430;52.242;21.118;2023-06-04T12:36:18;100993.23;;;41.10;14.23
33795;BME280;51430;52.242;21.118;2023-06-04T12:50:24;100987.39;;;39.49;14.29
33795;BME280;51430;52.242;21.118;2023-06-04T12:52:52;100984.10;;;38.06;15.31
33795;BME280;51430;52.242;21.118;2023-06-04T12:55:20;100983.70;;;37.30;15.35
33795;BME280;51430;52.242;21.118;2023-06-04T12:57:48;100975.42;;;36.48;16.21
33795;BME280;51430;52.242;21.118;2023-06-04T13:00:16;100977.48;;;36.33;16.16
33795;BME280;51430;52.242;21.118;2023-06-04T13:02:44;100976.30;;;35.74;16.38
33795;BME280;51430;52.242;21.118;2023-06-04T13:06:10;100969.46;;;35.37;16.42
33795;BME280;51430;52.242;21.118;2023-06-04T13:34:00;100939.35;;;31.76;18.06
33795;BME280;51430;52.242;21.118;2023-06-04T13:37:03;100940.39;;;31.33;18.37
33795;BME280;51430;52.242;21.118;2023-06-04T13:50:57;100936.77;;;34.23;17.57
33795;BME280;51430;52.242;21.118;2023-06-04T13:53:44;100941.98;;;34.89;16.41
33795;BME280;51430;52.242;21.118;2023-06-04T13:56:12;100939.70;;;34.75;16.97
33795;BME280;51430;52.242;21.118;2023-06-04T13:58:40;100941.02;;;35.32;16.62
33795;BME280;51430;52.242;21.118;2023-06-04T14:01:08;100937.24;;;35.01;16.22
33795;BME280;51430;52.242;21.118;2023-06-04T14:03:37;100933.61;;;34.96;16.64
33795;BME280;51430;52.242;21.118;2023-06-04T14:06:05;100933.90;;;34.85;16.69
33795;BME280;51430;52.242;21.118;2023-06-04T14:08:33;100935.04;;;34.67;16.26
33795;BME280;51430;52.242;21.118;2023-06-04T14:17:51;100925.32;;;32.97;17.60
33795;BME280;51430;52.242;21.118;2023-06-04T14:31:55;100924.77;;;34.37;17.84
33795;BME280;51430;52.242;21.118;2023-06-04T14:34:23;100920.47;;;35.71;17.46